Dyce, United Kingdom
Current Conditions -  °F | °C
As of 4:20 PM on Tuesday 21 Oct 2014 (Local Time) from EGPD Reporting Station
Rain Showers Rain Showers  
Wind Chill:   Ceiling: Unl
Heat Index:   Visibility: 6mi
Dew Point:   Wind: 31mph
Humidity: 71%   Direction: 310°NW
Pressure: 29.47"   Gusts: 47mph
Location:  57.25°N, 2.23°W
Report Text: EGPD 211520Z 31027G41KT 9999 VCSH SCT030 SCT045 07/02 Q0998 TEMPO SHRA
Loading
Personal Weather Stations






























Interactive Weather Map
Tropical Storm Tracking
New forecast layout! Learn more

10-Day Weather Forecast

Advertisements
Track Severe Weather on mobile